Time,TemperatureF,DewpointF,PressureIn,WindDirection,WindDirectionDegrees,WindSpeedMPH,WindSpeedGustMPH,Humidity,HourlyPrecipIn,Conditions,Clouds,dailyrainin,SoftwareType,DateUTC
2013-12-04 00:09:00,62.0,60.5,29.97,SE,130,0.0,2.0,95,0.00,,,0.00,Weather View 32 v70,2013-12-04 05:09:00,
2013-12-04 00:11:00,62.0,60.5,29.97,SE,130,0.0,2.0,95,0.00,,,0.00,Weather View 32 v70,2013-12-04 05:11:00,
2013-12-04 00:19:00,62.1,60.3,29.97,SE,130,0.0,2.0,94,0.00,,,0.00,Weather View 32 v70,2013-12-04 05:19:00,
2013-12-04 00:29:00,62.2,60.4,29.97,SE,130,0.0,2.0,94,0.00,,,0.00,Weather View 32 v70,2013-12-04 05:29:00,
2013-12-04 00:39:00,62.0,60.2,29.97,SE,130,0.0,2.0,94,0.00,,,0.00,Weather View 32 v70,2013-12-04 05:39:00,
2013-12-04 00:49:00,62.0,60.2,29.96,SE,130,0.0,2.0,94,0.00,,,0.00,Weather View 32 v70,2013-12-04 05:49:00,
2013-12-04 00:59:00,62.1,60.3,29.96,ESE,123,0.0,1.0,94,0.00,,,0.00,Weather View 32 v70,2013-12-04 05:59:00,
2013-12-04 01:09:00,62.2,60.1,29.96,ESE,123,0.0,1.0,93,0.00,,,0.00,Weather View 32 v70,2013-12-04 06:09:00,
2013-12-04 01:12:00,62.2,60.1,29.96,ESE,123,0.0,1.0,93,0.00,,,0.00,Weather View 32 v70,2013-12-04 06:12:00,
2013-12-04 01:19:00,60.9,58.6,29.96,ESE,123,0.0,1.0,92,0.00,,,0.00,Weather View 32 v70,2013-12-04 06:19:00,
2013-12-04 01:29:00,60.5,58.8,29.96,ESE,123,0.0,1.0,94,0.00,,,0.00,Weather View 32 v70,2013-12-04 06:29:00,
2013-12-04 01:39:00,61.0,59.6,29.96,ESE,123,0.0,1.0,95,0.00,,,0.00,Weather View 32 v70,2013-12-04 06:39:00,
2013-12-04 01:49:00,61.4,60.0,29.96,ESE,123,0.0,1.0,95,0.00,,,0.00,Weather View 32 v70,2013-12-04 06:49:00,
2013-12-04 01:59:00,61.7,60.2,29.96,ESE,121,0.0,1.0,95,0.00,,,0.00,Weather View 32 v70,2013-12-04 06:59:00,
2013-12-04 02:09:00,62.1,60.3,29.95,SE,134,0.0,2.0,94,0.00,,,0.00,Weather View 32 v70,2013-12-04 07:09:00,
2013-12-04 02:12:00,62.1,60.3,29.95,SE,134,0.0,2.0,94,0.00,,,0.00,Weather View 32 v70,2013-12-04 07:12:00,
2013-12-04 02:19:00,62.0,60.2,29.95,SE,127,1.0,2.0,94,0.00,,,0.00,Weather View 32 v70,2013-12-04 07:19:00,
2013-12-04 02:29:00,62.3,60.5,29.95,SE,139,0.0,2.0,94,0.00,,,0.00,Weather View 32 v70,2013-12-04 07:29:00,
2013-12-04 02:39:00,62.5,60.7,29.96,SE,139,0.0,3.0,94,0.00,,,0.00,Weather View 32 v70,2013-12-04 07:39:00,
2013-12-04 02:49:00,61.2,58.5,29.96,SE,139,0.0,3.0,91,0.00,,,0.00,Weather View 32 v70,2013-12-04 07:49:00,
2013-12-04 02:59:00,59.9,57.9,29.96,SE,139,0.0,3.0,93,0.00,,,0.00,Weather View 32 v70,2013-12-04 07:59:00,
2013-12-04 03:09:00,59.8,58.4,29.96,SE,139,0.0,3.0,95,0.00,,,0.00,Weather View 32 v70,2013-12-04 08:09:00,
2013-12-04 03:13:00,59.8,58.4,29.96,SE,139,0.0,3.0,95,0.00,,,0.00,Weather View 32 v70,2013-12-04 08:13:00,
2013-12-04 03:19:00,59.1,57.7,29.96,SE,139,0.0,3.0,95,0.00,,,0.00,Weather View 32 v70,2013-12-04 08:19:00,
2013-12-04 03:29:00,58.7,57.3,29.96,SE,139,0.0,3.0,95,0.00,,,0.00,Weather View 32 v70,2013-12-04 08:29:00,
2013-12-04 03:39:00,58.4,57.0,29.97,SE,139,0.0,0.0,95,0.00,,,0.00,Weather View 32 v70,2013-12-04 08:39:00,
2013-12-04 03:49:00,57.3,55.9,29.97,SE,139,0.0,0.0,95,0.00,,,0.00,Weather View 32 v70,2013-12-04 08:49:00,
2013-12-04 03:59:00,57.1,56.0,29.97,SE,139,0.0,0.0,96,0.00,,,0.00,Weather View 32 v70,2013-12-04 08:59:00,
2013-12-04 04:09:00,57.3,56.2,29.98,SE,139,0.0,0.0,96,0.00,,,0.00,Weather View 32 v70,2013-12-04 09:09:00,
2013-12-04 04:13:00,57.3,56.2,29.98,SE,139,0.0,0.0,96,0.00,,,0.00,Weather View 32 v70,2013-12-04 09:13:00,
2013-12-04 04:19:00,57.1,56.0,29.98,SE,139,0.0,0.0,96,0.00,,,0.00,Weather View 32 v70,2013-12-04 09:19:00,
2013-12-04 04:29:00,56.9,55.8,29.98,SE,139,0.0,0.0,96,0.00,,,0.00,Weather View 32 v70,2013-12-04 09:29:00,
2013-12-04 04:39:00,56.4,55.3,29.98,SE,139,0.0,0.0,96,0.00,,,0.00,Weather View 32 v70,2013-12-04 09:39:00,
2013-12-04 04:49:00,55.9,54.8,29.98,SE,139,0.0,0.0,96,0.00,,,0.00,Weather View 32 v70,2013-12-04 09:49:00,
2013-12-04 04:59:00,55.5,54.4,29.99,SE,139,0.0,0.0,96,0.00,,,0.00,Weather View 32 v70,2013-12-04 09:59:00,
2013-12-04 05:09:00,55.3,54.2,29.99,SE,139,0.0,0.0,96,0.00,,,0.00,Weather View 32 v70,2013-12-04 10:09:00,
2013-12-04 05:14:00,55.3,54.2,29.99,SE,139,0.0,0.0,96,0.00,,,0.00,Weather View 32 v70,2013-12-04 10:14:00,
2013-12-04 05:19:00,55.0,53.9,29.99,SE,139,0.0,0.0,96,0.00,,,0.00,Weather View 32 v70,2013-12-04 10:19:00,
2013-12-04 05:29:00,54.8,53.7,29.99,SE,139,0.0,0.0,96,0.00,,,0.00,Weather View 32 v70,2013-12-04 10:29:00,
2013-12-04 05:39:00,54.9,53.8,30.00,SE,139,0.0,0.0,96,0.00,,,0.00,Weather View 32 v70,2013-12-04 10:39:00,
2013-12-04 05:49:00,54.9,53.8,30.00,SE,139,0.0,0.0,96,0.00,,,0.00,Weather View 32 v70,2013-12-04 10:49:00,
2013-12-04 05:59:00,54.7,53.6,30.01,SE,139,0.0,0.0,96,0.00,,,0.00,Weather View 32 v70,2013-12-04 10:59:00,
2013-12-04 06:09:00,54.4,53.3,30.01,SE,139,0.0,0.0,96,0.00,,,0.00,Weather View 32 v70,2013-12-04 11:09:00,
2013-12-04 06:14:00,54.4,53.3,30.01,SE,139,0.0,0.0,96,0.00,,,0.00,Weather View 32 v70,2013-12-04 11:14:00,
2013-12-04 06:19:00,54.2,53.1,30.01,SE,139,0.0,0.0,96,0.00,,,0.00,Weather View 32 v70,2013-12-04 11:19:00,
2013-12-04 06:29:00,54.0,52.9,30.02,SE,139,0.0,0.0,96,0.00,,,0.00,Weather View 32 v70,2013-12-04 11:29:00,
2013-12-04 06:39:00,53.7,52.6,30.02,SE,139,0.0,0.0,96,0.00,,,0.00,Weather View 32 v70,2013-12-04 11:39:00,
2013-12-04 06:49:00,53.4,52.3,30.02,SE,139,0.0,0.0,96,0.00,,,0.00,Weather View 32 v70,2013-12-04 11:49:00,
2013-12-04 06:59:00,53.2,52.1,30.02,SE,139,0.0,0.0,96,0.00,,,0.00,Weather View 32 v70,2013-12-04 11:59:00,
2013-12-04 07:09:00,53.0,51.9,30.02,SE,139,0.0,0.0,96,0.00,,,0.00,Weather View 32 v70,2013-12-04 12:09:00,
2013-12-04 07:15:00,53.0,51.9,30.02,SE,139,0.0,0.0,96,0.00,,,0.00,Weather View 32 v70,2013-12-04 12:15:00,
2013-12-04 07:19:00,53.2,52.1,30.02,SE,139,0.0,0.0,96,0.00,,,0.00,Weather View 32 v70,2013-12-04 12:19:00,
2013-12-04 07:29:00,53.7,52.9,30.02,SE,139,0.0,0.0,97,0.00,,,0.00,Weather View 32 v70,2013-12-04 12:29:00,
2013-12-04 07:39:00,54.0,52.9,30.02,SE,139,0.0,0.0,96,0.00,,,0.00,Weather View 32 v70,2013-12-04 12:39:00,
2013-12-04 07:49:00,54.7,53.6,30.03,SE,139,0.0,0.0,96,0.00,,,0.00,Weather View 32 v70,2013-12-04 12:49:00,
2013-12-04 07:59:00,55.3,54.2,30.03,SE,139,0.0,0.0,96,0.00,,,0.00,Weather View 32 v70,2013-12-04 12:59:00,
2013-12-04 08:09:00,56.5,55.7,30.03,SE,139,0.0,0.0,97,0.00,,,0.00,Weather View 32 v70,2013-12-04 13:09:00,
2013-12-04 08:15:00,56.5,55.7,30.03,SE,139,0.0,0.0,97,0.00,,,0.00,Weather View 32 v70,2013-12-04 13:15:00,
2013-12-04 08:19:00,57.6,56.8,30.03,SE,139,0.0,0.0,97,0.00,,,0.00,Weather View 32 v70,2013-12-04 13:19:00,
2013-12-04 08:30:00,59.4,58.3,30.03,SE,139,0.0,0.0,96,0.00,,,0.00,Weather View 32 v70,2013-12-04 13:30:00,
2013-12-04 08:39:00,60.5,59.3,30.04,SE,139,0.0,0.0,96,0.00,,,0.00,Weather View 32 v70,2013-12-04 13:39:00,
2013-12-04 08:49:00,61.3,60.1,30.04,SE,139,0.0,0.0,96,0.00,,,0.00,Weather View 32 v70,2013-12-04 13:49:00,
2013-12-04 09:00:00,62.0,60.8,30.04,SE,139,0.0,0.0,96,0.00,,,0.00,Weather View 32 v70,2013-12-04 14:00:00,
2013-12-04 09:09:00,62.9,61.4,30.05,SE,139,0.0,0.0,95,0.00,,,0.00,Weather View 32 v70,2013-12-04 14:09:00,
2013-12-04 09:17:00,62.9,61.4,30.05,SE,139,0.0,0.0,95,0.00,,,0.00,Weather View 32 v70,2013-12-04 14:17:00,
2013-12-04 09:19:00,63.6,62.1,30.05,SE,139,0.0,0.0,95,0.00,,,0.00,Weather View 32 v70,2013-12-04 14:19:00,
2013-12-04 09:29:00,64.1,62.6,30.05,SE,139,0.0,0.0,95,0.00,,,0.00,Weather View 32 v70,2013-12-04 14:29:00,
2013-12-04 09:40:00,64.9,63.1,30.06,SE,139,0.0,0.0,94,0.00,,,0.00,Weather View 32 v70,2013-12-04 14:40:00,
2013-12-04 09:50:00,65.3,63.5,30.06,SE,139,0.0,0.0,94,0.00,,,0.00,Weather View 32 v70,2013-12-04 14:50:00,
2013-12-04 09:59:00,66.5,64.4,30.06,SE,139,0.0,0.0,93,0.00,,,0.00,Weather View 32 v70,2013-12-04 14:59:00,
2013-12-04 10:09:00,67.3,64.9,30.06,SE,139,0.0,0.0,92,0.00,,,0.00,Weather View 32 v70,2013-12-04 15:09:00,
2013-12-04 10:18:00,67.3,64.9,30.06,SE,139,0.0,0.0,92,0.00,,,0.00,Weather View 32 v70,2013-12-04 15:18:00,
2013-12-04 10:19:00,68.0,65.3,30.06,SE,139,0.0,0.0,91,0.00,,,0.00,Weather View 32 v70,2013-12-04 15:19:00,
2013-12-04 10:29:00,69.7,66.3,30.06,SE,139,0.0,0.0,89,0.00,,,0.00,Weather View 32 v70,2013-12-04 15:29:00,
2013-12-04 10:39:00,69.4,66.0,30.06,SE,128,0.0,0.0,89,0.00,,,0.00,Weather View 32 v70,2013-12-04 15:39:00,
2013-12-04 10:49:00,69.6,66.2,30.06,SE,128,0.0,0.0,89,0.00,,,0.00,Weather View 32 v70,2013-12-04 15:49:00,
2013-12-04 10:59:00,70.1,66.4,30.06,SE,128,0.0,0.0,88,0.00,,,0.00,Weather View 32 v70,2013-12-04 15:59:00,
2013-12-04 11:09:00,71.8,67.4,30.06,SE,128,0.0,0.0,86,0.00,,,0.00,Weather View 32 v70,2013-12-04 16:09:00,
2013-12-04 11:18:00,71.8,67.4,30.06,SE,128,0.0,0.0,86,0.00,,,0.00,Weather View 32 v70,2013-12-04 16:18:00,
2013-12-04 11:19:00,73.0,67.5,30.06,SE,132,0.0,7.0,83,0.00,,,0.00,Weather View 32 v70,2013-12-04 16:19:00,
2013-12-04 11:29:00,74.1,67.5,30.06,South,188,0.0,7.0,80,0.00,,,0.00,Weather View 32 v70,2013-12-04 16:29:00,
2013-12-04 11:39:00,74.9,66.8,30.05,SE,141,2.0,7.0,76,0.00,,,0.00,Weather View 32 v70,2013-12-04 16:39:00,
2013-12-04 11:49:00,75.1,67.0,30.05,SSE,161,0.0,7.0,76,0.00,,,0.00,Weather View 32 v70,2013-12-04 16:49:00,
2013-12-04 11:59:00,75.7,67.9,30.05,WSW,250,0.0,7.0,77,0.00,,,0.00,Weather View 32 v70,2013-12-04 16:59:00,
2013-12-04 12:09:00,75.8,67.7,30.04,West,275,0.0,7.0,76,0.00,,,0.00,Weather View 32 v70,2013-12-04 17:09:00,
2013-12-04 12:19:00,75.8,67.7,30.04,West,275,0.0,7.0,76,0.00,,,0.00,Weather View 32 v70,2013-12-04 17:19:00,
2013-12-04 12:29:00,76.2,67.7,30.04,South,182,0.0,6.0,75,0.00,,,0.00,Weather View 32 v70,2013-12-04 17:29:00,
2013-12-04 12:39:00,76.5,66.8,30.03,SSE,153,1.0,5.0,72,0.00,,,0.00,Weather View 32 v70,2013-12-04 17:39:00,
2013-12-04 12:49:00,76.5,66.8,30.02,NW,322,1.0,8.0,72,0.00,,,0.00,Weather View 32 v70,2013-12-04 17:49:00,
2013-12-04 12:59:00,77.0,67.6,30.02,SSW,211,0.0,8.0,73,0.00,,,0.00,Weather View 32 v70,2013-12-04 17:59:00,
2013-12-04 13:09:00,76.9,66.3,30.01,SSE,163,5.0,9.0,70,0.00,,,0.00,Weather View 32 v70,2013-12-04 18:09:00,
2013-12-04 13:19:00,76.9,66.3,30.01,SSE,163,5.0,9.0,70,0.00,,,0.00,Weather View 32 v70,2013-12-04 18:19:00,
2013-12-04 13:29:00,77.8,67.6,30.01,SSE,148,1.0,9.0,71,0.00,,,0.00,Weather View 32 v70,2013-12-04 18:29:00,
2013-12-04 13:39:00,77.8,66.8,30.01,SSW,195,0.0,9.0,69,0.00,,,0.00,Weather View 32 v70,2013-12-04 18:39:00,
2013-12-04 13:49:00,77.6,65.7,30.00,SSE,164,0.0,9.0,67,0.00,,,0.00,Weather View 32 v70,2013-12-04 18:49:00,
2013-12-04 13:59:00,77.5,66.5,30.00,SSE,162,1.0,9.0,69,0.00,,,0.00,Weather View 32 v70,2013-12-04 18:59:00,
2013-12-04 14:09:00,78.3,66.8,30.00,South,169,3.0,9.0,68,0.00,,,0.00,Weather View 32 v70,2013-12-04 19:09:00,
2013-12-04 14:20:00,77.9,66.0,30.00,South,180,5.0,7.0,67,0.00,,,0.00,Weather View 32 v70,2013-12-04 19:20:00,
2013-12-04 14:29:00,78.0,65.2,30.00,South,183,0.0,7.0,65,0.00,,,0.00,Weather View 32 v70,2013-12-04 19:29:00,
2013-12-04 14:39:00,78.4,65.2,30.00,SSE,166,0.0,7.0,64,0.00,,,0.00,Weather View 32 v70,2013-12-04 19:39:00,
2013-12-04 14:49:00,78.4,65.6,30.00,SSE,165,2.0,7.0,65,0.00,,,0.00,Weather View 32 v70,2013-12-04 19:49:00,
2013-12-04 14:59:00,77.4,65.1,30.00,South,170,0.0,8.0,66,0.00,,,0.00,Weather View 32 v70,2013-12-04 19:59:00,
2013-12-04 15:09:00,77.7,65.4,30.01,South,175,1.0,8.0,66,0.00,,,0.00,Weather View 32 v70,2013-12-04 20:09:00,
2013-12-04 15:19:00,77.8,65.9,30.01,South,175,0.0,8.0,67,0.00,,,0.00,Weather View 32 v70,2013-12-04 20:19:00,
2013-12-04 15:20:00,77.8,65.9,30.01,South,175,0.0,8.0,67,0.00,,,0.00,Weather View 32 v70,2013-12-04 20:20:00,
2013-12-04 15:29:00,77.9,66.0,30.00,South,175,0.0,8.0,67,0.00,,,0.00,Weather View 32 v70,2013-12-04 20:29:00,
2013-12-04 15:39:00,78.3,65.5,30.00,SSW,197,0.0,8.0,65,0.00,,,0.00,Weather View 32 v70,2013-12-04 20:39:00,
2013-12-04 15:49:00,78.3,65.5,30.00,WSW,248,0.0,8.0,65,0.00,,,0.00,Weather View 32 v70,2013-12-04 20:49:00,
2013-12-04 15:59:00,77.8,65.5,30.00,SSE,158,0.0,8.0,66,0.00,,,0.00,Weather View 32 v70,2013-12-04 20:59:00,
2013-12-04 16:09:00,77.5,65.2,30.00,SW,217,0.0,4.0,66,0.00,,,0.00,Weather View 32 v70,2013-12-04 21:09:00,
2013-12-04 16:19:00,77.2,65.8,30.00,SW,232,0.0,4.0,68,0.00,,,0.00,Weather View 32 v70,2013-12-04 21:19:00,
2013-12-04 16:29:00,77.0,66.0,30.01,WSW,257,0.0,4.0,69,0.00,,,0.00,Weather View 32 v70,2013-12-04 21:29:00,
2013-12-04 16:39:00,76.5,66.8,30.01,WSW,257,0.0,4.0,72,0.00,,,0.00,Weather View 32 v70,2013-12-04 21:39:00,
2013-12-04 16:49:00,74.8,66.7,30.01,WSW,257,0.0,3.0,76,0.00,,,0.00,Weather View 32 v70,2013-12-04 21:49:00,
2013-12-04 16:59:00,74.1,66.8,30.02,WSW,257,0.0,3.0,78,0.00,,,0.00,Weather View 32 v70,2013-12-04 21:59:00,
2013-12-04 17:09:00,73.5,66.9,30.02,WSW,257,0.0,3.0,80,0.00,,,0.00,Weather View 32 v70,2013-12-04 22:09:00,
2013-12-04 17:19:00,72.4,66.9,30.02,WSW,257,0.0,3.0,83,0.00,,,0.00,Weather View 32 v70,2013-12-04 22:19:00,
2013-12-04 17:22:00,72.4,66.9,30.02,WSW,257,0.0,3.0,83,0.00,,,0.00,Weather View 32 v70,2013-12-04 22:22:00,
2013-12-04 17:29:00,71.7,66.9,30.02,WSW,257,0.0,0.0,85,0.00,,,0.00,Weather View 32 v70,2013-12-04 22:29:00,
2013-12-04 17:39:00,70.6,65.9,30.02,WSW,257,0.0,0.0,85,0.00,,,0.00,Weather View 32 v70,2013-12-04 22:39:00,
2013-12-04 17:49:00,69.9,65.8,30.02,WSW,257,0.0,0.0,87,0.00,,,0.00,Weather View 32 v70,2013-12-04 22:49:00,
2013-12-04 17:59:00,69.2,65.5,30.03,WSW,257,0.0,0.0,88,0.00,,,0.00,Weather View 32 v70,2013-12-04 22:59:00,
2013-12-04 18:09:00,68.2,65.1,30.03,WSW,257,0.0,0.0,90,0.00,,,0.00,Weather View 32 v70,2013-12-04 23:09:00,
2013-12-04 18:19:00,67.8,65.1,30.03,WSW,257,0.0,0.0,91,0.00,,,0.00,Weather View 32 v70,2013-12-04 23:19:00,
2013-12-04 18:22:00,67.8,65.1,30.03,WSW,257,0.0,0.0,91,0.00,,,0.00,Weather View 32 v70,2013-12-04 23:22:00,
2013-12-04 18:29:00,67.7,65.3,30.03,WSW,257,0.0,0.0,92,0.00,,,0.00,Weather View 32 v70,2013-12-04 23:29:00,
2013-12-04 18:39:00,67.0,64.3,30.03,WSW,257,0.0,0.0,91,0.00,,,0.00,Weather View 32 v70,2013-12-04 23:39:00,
2013-12-04 18:49:00,66.5,64.1,30.04,WSW,257,0.0,0.0,92,0.00,,,0.00,Weather View 32 v70,2013-12-04 23:49:00,
2013-12-04 18:59:00,66.0,63.9,30.04,WSW,257,0.0,0.0,93,0.00,,,0.00,Weather View 32 v70,2013-12-04 23:59:00,
2013-12-04 19:09:00,65.5,63.4,30.04,WSW,257,0.0,0.0,93,0.00,,,0.00,Weather View 32 v70,2013-12-05 00:09:00,
2013-12-04 19:19:00,65.3,63.5,30.04,WSW,257,0.0,0.0,94,0.00,,,0.00,Weather View 32 v70,2013-12-05 00:19:00,
2013-12-04 19:23:00,65.3,63.5,30.04,WSW,257,0.0,0.0,94,0.00,,,0.00,Weather View 32 v70,2013-12-05 00:23:00,
2013-12-04 19:29:00,65.5,63.7,30.04,WSW,257,0.0,0.0,94,0.00,,,0.00,Weather View 32 v70,2013-12-05 00:29:00,
2013-12-04 19:39:00,65.4,63.6,30.04,WSW,257,0.0,0.0,94,0.00,,,0.00,Weather View 32 v70,2013-12-05 00:39:00,
2013-12-04 19:49:00,64.9,63.1,30.04,WSW,257,0.0,0.0,94,0.00,,,0.00,Weather View 32 v70,2013-12-05 00:49:00,
2013-12-04 19:59:00,65.4,63.9,30.04,WSW,257,0.0,0.0,95,0.00,,,0.00,Weather View 32 v70,2013-12-05 00:59:00,
2013-12-04 20:09:00,65.2,63.7,30.04,WSW,257,0.0,0.0,95,0.00,,,0.00,Weather View 32 v70,2013-12-05 01:09:00,
2013-12-04 20:19:00,65.1,63.6,30.05,WSW,257,1.0,2.0,95,0.00,,,0.00,Weather View 32 v70,2013-12-05 01:19:00,
2013-12-04 20:29:00,65.1,63.6,30.05,WSW,257,0.0,2.0,95,0.00,,,0.00,Weather View 32 v70,2013-12-05 01:29:00,
2013-12-04 20:39:00,64.9,63.4,30.05,WSW,257,0.0,2.0,95,0.00,,,0.00,Weather View 32 v70,2013-12-05 01:39:00,
2013-12-04 20:49:00,64.5,63.0,30.06,WSW,257,0.0,2.0,95,0.00,,,0.00,Weather View 32 v70,2013-12-05 01:49:00,
2013-12-04 20:59:00,64.2,63.0,30.06,WSW,257,0.0,2.0,96,0.00,,,0.00,Weather View 32 v70,2013-12-05 01:59:00,
2013-12-04 21:09:00,65.2,64.3,30.06,WSW,257,0.0,2.0,97,0.00,,,0.00,Weather View 32 v70,2013-12-05 02:09:00,
2013-12-04 21:19:00,66.2,64.7,30.06,WSW,257,0.0,2.0,95,0.00,,,0.00,Weather View 32 v70,2013-12-05 02:19:00,
2013-12-04 21:24:00,66.2,64.7,30.06,WSW,257,0.0,2.0,95,0.00,,,0.00,Weather View 32 v70,2013-12-05 02:24:00,
2013-12-04 21:29:00,64.2,62.4,30.06,WSW,257,0.0,1.0,94,0.00,,,0.00,Weather View 32 v70,2013-12-05 02:29:00,
2013-12-04 21:39:00,64.3,63.1,30.06,WSW,257,0.0,1.0,96,0.00,,,0.00,Weather View 32 v70,2013-12-05 02:39:00,
2013-12-04 21:49:00,63.6,62.1,30.07,WSW,257,0.0,2.0,95,0.00,,,0.00,Weather View 32 v70,2013-12-05 02:49:00,
2013-12-04 21:59:00,63.0,61.5,30.07,WSW,257,0.0,2.0,95,0.00,,,0.00,Weather View 32 v70,2013-12-05 02:59:00,
2013-12-04 22:09:00,62.8,61.3,30.07,WSW,257,0.0,2.0,95,0.00,,,0.00,Weather View 32 v70,2013-12-05 03:09:00,
2013-12-04 22:19:00,62.2,60.7,30.07,WSW,257,0.0,2.0,95,0.00,,,0.00,Weather View 32 v70,2013-12-05 03:19:00,
2013-12-04 22:24:00,62.2,60.7,30.07,WSW,257,0.0,2.0,95,0.00,,,0.00,Weather View 32 v70,2013-12-05 03:24:00,
2013-12-04 22:29:00,62.1,60.6,30.08,WSW,257,0.0,2.0,95,0.00,,,0.00,Weather View 32 v70,2013-12-05 03:29:00,
2013-12-04 22:39:00,61.8,60.6,30.08,WSW,257,0.0,2.0,96,0.00,,,0.00,Weather View 32 v70,2013-12-05 03:39:00,
2013-12-04 22:49:00,61.5,60.3,30.09,WSW,257,0.0,1.0,96,0.00,,,0.00,Weather View 32 v70,2013-12-05 03:49:00,
2013-12-04 22:59:00,61.2,60.0,30.09,WSW,257,0.0,0.0,96,0.00,,,0.00,Weather View 32 v70,2013-12-05 03:59:00,
2013-12-04 23:09:00,61.3,60.1,30.09,WSW,257,0.0,0.0,96,0.00,,,0.00,Weather View 32 v70,2013-12-05 04:09:00,
2013-12-04 23:19:00,61.4,60.2,30.09,WSW,257,0.0,0.0,96,0.00,,,0.00,Weather View 32 v70,2013-12-05 04:19:00,
2013-12-04 23:25:00,61.4,60.2,30.09,WSW,257,0.0,0.0,96,0.00,,,0.00,Weather View 32 v70,2013-12-05 04:25:00,
2013-12-04 23:29:00,61.0,59.6,30.09,WSW,257,0.0,0.0,95,0.00,,,0.00,Weather View 32 v70,2013-12-05 04:29:00,
2013-12-04 23:39:00,60.5,59.3,30.09,WSW,257,0.0,0.0,96,0.00,,,0.00,Weather View 32 v70,2013-12-05 04:39:00,
2013-12-04 23:49:00,59.9,58.8,30.09,WSW,257,0.0,0.0,96,0.00,,,0.00,Weather View 32 v70,2013-12-05 04:49:00,
2013-12-04 23:59:00,59.5,58.4,30.10,WSW,257,0.0,0.0,96,0.00,,,0.00,Weather View 32 v70,2013-12-05 04:59:00,